Time;durP1;ratioP1;P1;durP2;ratioP2;P2;SDS_P1;SDS_P2;PMS_P1;PMS_P2;Temp;Humidity;BMP_temperature;BMP_pressure;BME280_temperature;BME280_humidity;BME280_pressure;Samples;Min_cycle;Max_cycle;Signal;HPM_P1;HPM_P2
2022/09/20 00:01:11;;;;;;;15.05;1.38;;;10.20;99.90;;;;;;4831702;29;20050;-87
2022/09/20 00:03:40;;;;;;;12.95;1.40;;;10.20;99.90;;;;;;4830886;29;20058;-87
2022/09/20 00:06:08;;;;;;;13.73;2.08;;;10.10;99.90;;;;;;4831597;29;20051;-87
2022/09/20 00:08:34;;;;;;;8.75;1.30;;;10.10;99.90;;;;;;4830854;29;20051;-86
2022/09/20 00:11:03;;;;;;;14.07;2.03;;;10.00;99.90;;;;;;4830781;29;20058;-87
2022/09/20 00:13:30;;;;;;;10.43;1.30;;;9.90;99.90;;;;;;4831158;29;20062;-87
2022/09/20 00:15:56;;;;;;;7.80;1.08;;;9.70;99.90;;;;;;4833955;29;20046;-87
2022/09/20 00:18:22;;;;;;;7.60;1.23;;;9.60;99.90;;;;;;4803160;29;20487;-87
2022/09/20 00:20:49;;;;;;;10.40;1.75;;;9.40;99.90;;;;;;4803663;29;20050;-87
2022/09/20 00:23:15;;;;;;;7.57;1.85;;;9.30;99.90;;;;;;4803353;29;20069;-87
2022/09/20 00:25:41;;;;;;;10.05;1.40;;;9.20;99.90;;;;;;4802900;29;20046;-87
2022/09/20 00:28:08;;;;;;;6.97;1.10;;;9.00;99.90;;;;;;4803454;29;20436;-86
2022/09/20 00:30:34;;;;;;;11.75;1.40;;;8.90;99.90;;;;;;4804211;29;20082;-87
2022/09/20 00:33:00;;;;;;;8.75;1.45;;;8.80;99.90;;;;;;4803128;29;20118;-88
2022/09/20 00:35:28;;;;;;;13.07;1.35;;;8.70;99.90;;;;;;4803530;29;20062;-87
2022/09/20 00:37:54;;;;;;;14.63;1.48;;;8.80;99.90;;;;;;4803311;29;20058;-88
2022/09/20 00:40:22;;;;;;;14.63;1.30;;;8.80;99.90;;;;;;4802414;29;20415;-88
2022/09/20 00:42:48;;;;;;;11.60;1.60;;;9.00;99.90;;;;;;4803741;29;20058;-88
2022/09/20 00:45:24;;;;;;;14.13;1.65;;;9.10;99.90;;;;;;4803054;29;20054;-87
2022/09/20 00:47:56;;;;;;;13.60;1.60;;;9.20;99.90;;;;;;4803505;29;20054;-88
2022/09/20 00:50:34;;;;;;;19.48;1.60;;;9.20;99.90;;;;;;4819343;29;20110;-88
2022/09/20 00:53:06;;;;;;;14.60;1.73;;;9.30;99.90;;;;;;4803608;29;20050;-86
2022/09/20 00:55:36;;;;;;;10.85;1.40;;;9.30;99.90;;;;;;4819368;29;20061;-87
2022/09/20 00:58:02;;;;;;;13.63;1.48;;;9.30;99.90;;;;;;4819162;29;20047;-87
2022/09/20 01:00:28;;;;;;;12.80;1.17;;;9.40;99.90;;;;;;4802982;29;20046;-88
2022/09/20 01:02:57;;;;;;;11.20;1.45;;;9.30;99.90;;;;;;4803857;29;20050;-87
2022/09/20 01:05:24;;;;;;;13.88;1.80;;;9.30;99.90;;;;;;4818558;29;20061;-87
2022/09/20 01:07:51;;;;;;;13.13;1.83;;;9.30;99.90;;;;;;4818489;29;20070;-87
2022/09/20 01:10:17;;;;;;;7.85;1.10;;;9.30;99.90;;;;;;4802842;29;20073;-87
2022/09/20 01:12:45;;;;;;;9.70;1.80;;;9.30;99.90;;;;;;4819174;29;20050;-87
2022/09/20 01:15:11;;;;;;;10.55;1.67;;;9.30;99.90;;;;;;4802408;29;20137;-87
2022/09/20 01:17:41;;;;;;;17.25;1.60;;;9.30;99.90;;;;;;4803600;29;20065;-87
2022/09/20 01:20:15;;;;;;;8.65;1.10;;;9.20;99.90;;;;;;4803717;29;20407;-87
2022/09/20 01:22:49;;;;;;;7.32;1.17;;;9.10;99.90;;;;;;4803147;29;20156;-87
2022/09/20 01:25:26;;;;;;;7.15;1.20;;;9.00;99.90;;;;;;4817904;29;20054;-87
2022/09/20 01:27:53;;;;;;;9.13;1.17;;;8.80;99.90;;;;;;4802410;29;20188;-87
2022/09/20 01:30:24;;;;;;;9.77;1.30;;;8.70;99.90;;;;;;4803324;29;20058;-87
2022/09/20 01:32:55;;;;;;;13.43;1.45;;;8.70;99.90;;;;;;4817953;29;20404;-87
2022/09/20 01:35:24;;;;;;;13.77;2.05;;;8.60;99.90;;;;;;4817922;29;20057;-86
2022/09/20 01:37:57;;;;;;;16.15;2.15;;;8.60;99.90;;;;;;4799538;29;20051;-87
2022/09/20 01:40:33;;;;;;;16.50;1.55;;;8.50;99.90;;;;;;4799491;29;20062;-87
2022/09/20 01:43:25;;;;;;;10.82;1.10;;;8.50;99.90;;;;;;4799400;29;20062;-87
2022/09/20 01:45:52;;;;;;;13.40;1.80;;;8.30;99.90;;;;;;4799892;29;20166;-87
2022/09/20 01:48:30;;;;;;;7.60;1.10;;;8.50;99.90;;;;;;4800371;29;20518;-87
2022/09/20 01:51:20;;;;;;;9.10;1.50;;;8.20;99.90;;;;;;4802505;29;20047;-87
2022/09/20 01:54:11;;;;;;;10.30;1.60;;;8.20;99.90;;;;;;4803150;29;20051;-87
2022/09/20 01:56:38;;;;;;;10.18;1.10;;;8.10;99.90;;;;;;4802807;29;20055;-87
2022/09/20 01:59:34;;;;;;;13.00;1.40;;;8.10;99.90;;;;;;4803361;29;20139;-86
2022/09/20 02:02:01;;;;;;;12.63;2.38;;;8.10;99.90;;;;;;4803399;29;20103;-87
2022/09/20 02:04:39;;;;;;;7.38;1.40;;;8.00;99.90;;;;;;4802777;29;20085;-87
2022/09/20 02:07:37;;;;;;;9.82;1.50;;;8.00;99.90;;;;;;4803448;29;20047;-87
2022/09/20 02:10:31;;;;;;;5.10;0.98;;;7.90;99.90;;;;;;4801366;29;20065;-87
2022/09/20 02:13:03;;;;;;;9.82;1.50;;;7.80;99.90;;;;;;4802945;29;20083;-87
2022/09/20 02:15:36;;;;;;;10.57;1.27;;;7.70;99.90;;;;;;4811943;29;20141;-87
2022/09/20 02:18:15;;;;;;;10.98;1.40;;;7.70;99.90;;;;;;4805546;29;20063;-86
2022/09/20 02:21:10;;;;;;;8.68;1.33;;;7.60;99.90;;;;;;4821070;29;20454;-87
2022/09/20 02:23:40;;;;;;;14.13;2.00;;;7.50;99.90;;;;;;4805613;29;20054;-87
2022/09/20 02:26:22;;;;;;;12.30;1.52;;;7.50;99.90;;;;;;4805832;29;20089;-87
2022/09/20 02:29:00;;;;;;;11.85;2.22;;;7.50;99.90;;;;;;4821010;29;20447;-87
2022/09/20 02:31:34;;;;;;;18.00;2.33;;;7.50;99.90;;;;;;4805264;29;20046;-86
2022/09/20 02:34:28;;;;;;;5.32;1.20;;;7.50;99.90;;;;;;4820478;29;20050;-87
2022/09/20 02:37:26;;;;;;;10.73;1.45;;;7.50;99.90;;;;;;4820824;29;20046;-87
2022/09/20 02:40:05;;;;;;;14.93;2.13;;;7.40;99.90;;;;;;4819210;29;20101;-87
2022/09/20 02:42:38;;;;;;;15.98;2.13;;;7.40;99.90;;;;;;4821378;29;20050;-87
2022/09/20 02:45:06;;;;;;;14.95;2.20;;;7.40;99.90;;;;;;4820605;29;20085;-87
2022/09/20 02:47:35;;;;;;;12.57;2.10;;;7.40;99.90;;;;;;4821014;29;20088;-86
2022/09/20 02:50:24;;;;;;;11.93;2.25;;;7.30;99.90;;;;;;4806023;29;20050;-86
2022/09/20 02:53:16;;;;;;;9.27;1.70;;;7.30;99.90;;;;;;4819950;29;20061;-86
2022/09/20 02:56:01;;;;;;;21.00;2.83;;;7.30;99.90;;;;;;4820356;29;20053;-87
2022/09/20 02:58:51;;;;;;;11.82;2.53;;;7.20;99.90;;;;;;4805243;29;20058;-87
2022/09/20 03:01:24;;;;;;;9.90;2.05;;;7.20;99.90;;;;;;4805448;29;20141;-87
2022/09/20 03:04:13;;;;;;;9.85;1.90;;;7.60;99.90;;;;;;4805035;29;20094;-86
2022/09/20 03:06:53;;;;;;;11.07;1.95;;;7.20;99.90;;;;;;4804543;29;20518;-87
2022/09/20 03:09:27;;;;;;;11.73;2.10;;;7.20;99.90;;;;;;4804792;29;20050;-87
2022/09/20 03:12:16;;;;;;;10.52;2.42;;;7.10;99.90;;;;;;4819921;29;20436;-87
2022/09/20 03:15:18;;;;;;;7.03;2.00;;;7.10;99.90;;;;;;4804768;29;20051;-87
2022/09/20 03:17:59;;;;;;;8.48;2.15;;;7.10;99.90;;;;;;4805131;29;20069;-87
2022/09/20 03:20:42;;;;;;;13.18;2.00;;;7.00;99.90;;;;;;4804473;29;20043;-87
2022/09/20 03:23:24;;;;;;;;;;;7.00;99.90;;;;;;4805030;29;20046;-87
2022/09/20 03:26:02;;;;;;;8.48;1.73;;;7.00;99.90;;;;;;4819843;29;20016;-87
2022/09/20 03:28:51;;;;;;;8.73;1.73;;;6.90;99.90;;;;;;4804547;29;20039;-88
2022/09/20 03:31:25;;;;;;;10.05;1.70;;;6.90;99.90;;;;;;4820132;29;20204;-86
2022/09/20 03:33:52;;;;;;;11.02;1.63;;;6.90;99.90;;;;;;4819889;29;20062;-87
2022/09/20 03:36:27;;;;;;;18.63;3.97;;;7.00;99.90;;;;;;4816143;29;20412;-87
2022/09/20 03:39:04;;;;;;;10.57;1.67;;;7.00;99.90;;;;;;4785623;29;20082;-87
2022/09/20 03:41:41;;;;;;;9.27;1.48;;;7.00;99.90;;;;;;4786242;29;20393;-87
2022/09/20 03:44:14;;;;;;;15.18;1.80;;;7.00;99.90;;;;;;4786650;29;20051;-86
2022/09/20 03:46:47;;;;;;;8.05;1.63;;;7.00;99.90;;;;;;4801454;29;20054;-86
2022/09/20 03:49:31;;;;;;;7.75;1.50;;;7.00;99.90;;;;;;4800815;29;20055;-86
2022/09/20 03:52:13;;;;;;;9.75;1.80;;;7.00;99.90;;;;;;4801144;29;20555;-87
2022/09/20 03:54:45;;;;;;;12.75;1.50;;;6.90;99.90;;;;;;4785339;29;20046;-88
2022/09/20 03:57:31;;;;;;;11.80;2.60;;;7.00;99.90;;;;;;4786043;29;20050;-87
2022/09/20 04:00:15;;;;;;;9.50;1.52;;;7.00;99.90;;;;;;4786214;29;20511;-88
2022/09/20 04:02:57;;;;;;;10.27;1.63;;;7.00;99.90;;;;;;4785315;29;20062;-87
2022/09/20 04:05:46;;;;;;;8.38;1.40;;;7.00;99.90;;;;;;4786229;29;20070;-87
2022/09/20 04:08:21;;;;;;;13.13;1.88;;;7.10;99.90;;;;;;4785164;29;20051;-86
2022/09/20 04:11:14;;;;;;;11.55;1.70;;;7.10;99.90;;;;;;4785391;29;20059;-87
2022/09/20 04:13:51;;;;;;;14.75;1.80;;;7.20;99.90;;;;;;4784961;29;20508;-86
2022/09/20 04:16:19;;;;;;;23.70;2.10;;;7.20;99.90;;;;;;4800321;29;20111;-87
2022/09/20 04:18:55;;;;;;;11.35;1.83;;;7.10;99.90;;;;;;4785593;29;20059;-86
2022/09/20 04:21:26;;;;;;;10.35;2.42;;;7.20;99.90;;;;;;4787250;29;20133;-86
2022/09/20 04:23:58;;;;;;;13.70;2.58;;;7.20;99.90;;;;;;4817616;29;20078;-87
2022/09/20 04:26:28;;;;;;;13.23;1.90;;;7.20;99.90;;;;;;4819258;29;20043;-87
2022/09/20 04:29:04;;;;;;;9.10;2.10;;;7.20;99.90;;;;;;4803758;29;20288;-86
2022/09/20 04:31:44;;;;;;;10.38;1.45;;;7.30;99.90;;;;;;4802965;29;20053;-86
2022/09/20 04:34:20;;;;;;;12.88;1.80;;;7.20;99.90;;;;;;4804339;29;20046;-86
2022/09/20 04:37:01;;;;;;;7.97;1.85;;;7.10;99.90;;;;;;4819571;29;20089;-87
2022/09/20 04:39:44;;;;;;;9.65;1.30;;;7.20;99.90;;;;;;4802435;29;20050;-87
2022/09/20 04:42:20;;;;;;;11.50;1.70;;;7.10;99.90;;;;;;4803830;29;20141;-87
2022/09/20 04:45:13;;;;;;;6.45;1.50;;;7.10;99.90;;;;;;4818127;29;20054;-87
2022/09/20 04:48:17;;;;;;;16.17;2.00;;;7.00;99.90;;;;;;4802637;29;20141;-87
2022/09/20 04:51:05;;;;;;;9.35;1.67;;;7.10;99.90;;;;;;4811975;29;20093;-87
2022/09/20 04:53:39;;;;;;;10.20;1.90;;;7.00;99.90;;;;;;4817902;29;20046;-86
2022/09/20 04:56:08;;;;;;;12.70;1.65;;;7.00;99.90;;;;;;4819139;29;20106;-86
2022/09/20 04:59:07;;;;;;;9.15;1.52;;;7.10;99.90;;;;;;4817876;29;20084;-87
2022/09/20 05:01:41;;;;;;;17.02;2.15;;;7.00;99.90;;;;;;4818740;29;20169;-87
2022/09/20 05:04:09;;;;;;;10.85;1.75;;;7.10;99.90;;;;;;4818231;29;20046;-86
2022/09/20 05:06:49;;;;;;;11.77;1.50;;;7.00;99.90;;;;;;4818044;29;20137;-87
2022/09/20 05:09:57;;;;;;;11.02;2.00;;;7.00;99.90;;;;;;4818991;29;20507;-87
2022/09/20 05:12:45;;;;;;;9.48;1.65;;;7.10;99.90;;;;;;4820139;29;20069;-86
2022/09/20 05:15:27;;;;;;;15.32;2.20;;;7.10;99.90;;;;;;4819417;29;20046;-88
2022/09/20 05:18:20;;;;;;;11.43;1.87;;;7.30;99.90;;;;;;4820265;29;20058;-87
2022/09/20 05:20:58;;;;;;;7.13;1.67;;;7.50;99.90;;;;;;4816451;29;20049;-87
2022/09/20 05:23:45;;;;;;;13.98;2.08;;;7.30;99.90;;;;;;4799204;29;20512;-88
2022/09/20 05:26:20;;;;;;;14.80;2.60;;;7.40;99.90;;;;;;4800294;29;20053;-87
2022/09/20 05:28:59;;;;;;;10.00;1.65;;;7.40;99.90;;;;;;4799368;29;20066;-88
2022/09/20 05:31:55;;;;;;;11.68;2.42;;;7.50;99.90;;;;;;4799932;29;20065;-87
2022/09/20 05:34:41;;;;;;;15.13;2.17;;;7.60;99.90;;;;;;4800122;29;20518;-87
2022/09/20 05:37:13;;;;;;;12.75;2.53;;;7.70;99.90;;;;;;4800239;29;20924;-87
2022/09/20 05:39:50;;;;;;;12.82;1.65;;;7.80;99.90;;;;;;4799074;29;20134;-87
2022/09/20 05:42:38;;;;;;;7.22;2.10;;;7.90;99.90;;;;;;4799201;29;20058;-88
2022/09/20 05:45:40;;;;;;;12.40;2.53;;;8.10;99.90;;;;;;4800078;29;20055;-88
2022/09/20 05:48:13;;;;;;;10.50;2.35;;;8.30;99.90;;;;;;4798501;29;20511;-88
2022/09/20 05:50:45;;;;;;;17.85;2.33;;;8.50;99.90;;;;;;4800793;29;20073;-88
2022/09/20 05:53:22;;;;;;;13.25;1.80;;;8.60;99.90;;;;;;4800886;29;20055;-89
2022/09/20 05:56:04;;;;;;;14.98;2.03;;;8.60;99.90;;;;;;4801706;29;20047;-89
2022/09/20 05:58:56;;;;;;;9.35;1.85;;;8.80;99.90;;;;;;4801620;29;20108;-90
2022/09/20 06:01:44;;;;;;;17.23;2.10;;;8.80;99.90;;;;;;4810760;29;20349;-90
2022/09/20 06:04:16;;;;;;;8.68;2.17;;;8.80;99.90;;;;;;4799761;29;20511;-87
2022/09/20 06:06:54;;;;;;;12.25;1.85;;;8.80;99.90;;;;;;4784958;29;20062;-88
2022/09/20 06:09:39;;;;;;;10.32;1.92;;;8.90;99.90;;;;;;4783591;29;20151;-88
2022/09/20 06:12:24;;;;;;;8.70;1.88;;;8.90;99.90;;;;;;4800476;29;20331;-87
2022/09/20 06:15:10;;;;;;;11.05;1.73;;;9.00;99.90;;;;;;4799769;29;20054;-87
2022/09/20 06:17:47;;;;;;;9.95;2.25;;;9.10;99.90;;;;;;4799911;29;20101;-87
2022/09/20 06:20:27;;;;;;;12.43;2.03;;;9.10;99.90;;;;;;4785702;29;20069;-86
2022/09/20 06:22:58;;;;;;;10.70;1.77;;;9.20;99.90;;;;;;4784271;29;20065;-87
2022/09/20 06:25:30;;;;;;;12.15;1.90;;;9.30;99.90;;;;;;4784275;29;20058;-86
2022/09/20 06:28:14;;;;;;;16.98;1.92;;;9.40;99.90;;;;;;4818395;29;20093;-87
2022/09/20 06:30:49;;;;;;;13.23;1.60;;;9.60;99.90;;;;;;4817435;29;20051;-87
2022/09/20 06:33:17;;;;;;;9.68;1.90;;;9.90;99.90;;;;;;4817561;29;20051;-87
2022/09/20 06:35:52;;;;;;;6.97;1.60;;;10.20;99.90;;;;;;4818024;29;20050;-89
2022/09/20 07:32:09;;;;;;;7.55;1.02;;;11.20;99.90;;;;;;4820752;29;20333;-88
2022/09/20 07:35:28;;;;;;;8.52;1.08;;;11.10;99.90;;;;;;4820603;29;20403;-88
2022/09/20 07:38:12;;;;;;;;;;;;;;;;;;;;;
2022/09/20 07:40:56;;;;;;;9.88;1.38;;;11.20;99.90;;;;;;4820851;29;20067;-89
2022/09/20 07:43:31;;;;;;;13.93;2.07;;;11.40;99.90;;;;;;4820720;29;20138;-88
2022/09/20 07:46:25;;;;;;;18.20;1.90;;;11.50;99.90;;;;;;4821009;29;20093;-89
2022/09/20 07:49:20;;;;;;;10.23;1.77;;;11.60;99.90;;;;;;4803050;29;20107;-89
2022/09/20 07:51:52;;;;;;;10.85;1.58;;;11.60;99.90;;;;;;4820824;29;20050;-88
2022/09/20 07:54:41;;;;;;;7.80;1.30;;;11.80;99.90;;;;;;4816980;29;20050;-89
2022/09/20 07:57:13;;;;;;;9.18;1.10;;;11.90;99.90;;;;;;4794914;29;20114;-89
2022/09/20 08:03:00;;;;;;;9.68;1.05;;;12.20;99.90;;;;;;4808564;29;20101;-88
2022/09/20 08:05:29;;;;;;;10.23;1.35;;;12.30;99.90;;;;;;4787822;29;20086;-89
2022/09/20 08:08:16;;;;;;;;;;;;;;;;;;;;;
2022/09/20 08:11:09;;;;;;;9.57;0.93;;;13.30;99.90;;;;;;4822182;29;20772;-89
2022/09/20 08:14:20;;;;;;;;;;;;;;;;;;;;;
2022/09/20 08:18:28;;;;;;;7.15;1.25;;;13.00;99.90;;;;;;4802659;29;20062;-88
2022/09/20 08:20:37;;;;;;;10.52;0.80;;;13.10;99.90;;;;;;4804068;29;20113;-89
2022/09/20 08:23:07;;;;;;;10.23;1.15;;;13.20;99.90;;;;;;4786460;29;20078;-89
2022/09/20 08:26:21;;;;;;;9.18;1.10;;;13.30;99.90;;;;;;4806163;29;20049;-92
2022/09/20 08:28:53;;;;;;;7.75;1.08;;;13.20;99.90;;;;;;4804787;29;20141;-89
2022/09/20 08:31:33;;;;;;;6.22;0.75;;;13.50;99.90;;;;;;4818413;29;20081;-89
2022/09/20 08:34:02;;;;;;;5.45;0.88;;;13.60;99.90;;;;;;4819786;29;20054;-88
2022/09/20 08:36:55;;;;;;;6.90;1.08;;;13.60;99.90;;;;;;4819516;29;20062;-89
2022/09/20 08:39:24;;;;;;;4.35;0.63;;;13.70;99.90;;;;;;4819167;29;20081;-88
2022/09/20 08:42:12;;;;;;;5.55;0.50;;;13.90;99.90;;;;;;4819847;29;20133;-86
2022/09/20 08:45:07;;;;;;;4.95;0.70;;;14.20;99.90;;;;;;4818829;29;20047;-90
2022/09/20 08:47:38;;;;;;;5.22;1.27;;;14.30;99.90;;;;;;4820625;29;20051;-89
2022/09/20 08:50:19;;;;;;;5.13;0.70;;;14.30;99.90;;;;;;4820474;29;20513;-89
2022/09/20 08:52:48;;;;;;;8.23;0.65;;;14.40;99.90;;;;;;4819368;29;20057;-88
2022/09/20 08:55:23;;;;;;;6.60;1.08;;;14.30;99.90;;;;;;4819694;29;20096;-90
2022/09/20 08:58:01;;;;;;;4.40;0.73;;;14.10;99.90;;;;;;4819657;29;20100;-89
2022/09/20 09:00:32;;;;;;;6.03;0.95;;;14.20;99.90;;;;;;4819178;29;20054;-88
2022/09/20 09:03:04;;;;;;;5.50;0.70;;;14.10;99.90;;;;;;4819540;29;20085;-89
2022/09/20 09:05:34;;;;;;;3.58;0.65;;;14.00;99.90;;;;;;4810680;29;20453;-89
2022/09/20 09:08:15;;;;;;;7.20;0.70;;;14.00;99.90;;;;;;4804149;29;20046;-89
2022/09/20 09:10:53;;;;;;;5.75;0.63;;;14.00;99.90;;;;;;4803881;29;20046;-88
2022/09/20 09:13:33;;;;;;;4.20;0.70;;;14.10;99.90;;;;;;4803869;29;20073;-89
2022/09/20 09:16:05;;;;;;;5.45;0.57;;;14.20;99.90;;;;;;4804530;29;20056;-88
2022/09/20 09:18:38;;;;;;;5.78;0.82;;;14.30;99.90;;;;;;4803997;29;20054;-88
2022/09/20 09:21:24;;;;;;;3.70;0.52;;;14.30;99.90;;;;;;4804091;29;20229;-88
2022/09/20 09:24:03;;;;;;;3.35;0.30;;;14.40;99.90;;;;;;4802610;29;20060;-87
2022/09/20 09:26:37;;;;;;;4.22;0.43;;;14.50;99.90;;;;;;4803360;29;20152;-89
2022/09/20 09:29:19;;;;;;;5.07;0.70;;;14.60;99.90;;;;;;4804313;29;20118;-89
2022/09/20 09:31:48;;;;;;;5.63;0.60;;;14.70;99.90;;;;;;4803595;29;20393;-88
2022/09/20 09:34:25;;;;;;;3.10;0.40;;;14.80;99.90;;;;;;4802686;29;20058;-88
2022/09/20 09:36:53;;;;;;;6.93;0.75;;;14.90;99.90;;;;;;4818963;29;20051;-88
2022/09/20 09:39:27;;;;;;;5.25;0.60;;;15.00;99.90;;;;;;4803583;29;20062;-88
2022/09/20 09:41:54;;;;;;;2.63;0.43;;;15.10;99.90;;;;;;4802919;29;20093;-89
2022/09/20 09:44:27;;;;;;;5.28;0.50;;;15.10;99.90;;;;;;4803941;29;20530;-88
2022/09/20 09:46:54;;;;;;;4.97;0.60;;;15.10;99.90;;;;;;4804472;29;20066;-87
2022/09/20 09:49:23;;;;;;;6.10;0.60;;;15.20;99.90;;;;;;4816304;24;20141;-91
2022/09/20 09:52:00;;;;;;;5.57;1.05;;;15.30;99.90;;;;;;4809355;29;20591;-91
2022/09/20 09:54:28;;;;;;;4.82;0.45;;;15.30;99.90;;;;;;4792438;29;20107;-91
2022/09/20 09:57:09;;;;;;;6.40;0.57;;;15.30;99.90;;;;;;4808292;29;20457;-92
2022/09/20 09:59:45;;;;;;;5.28;0.93;;;15.30;99.90;;;;;;4807564;29;20051;-94
2022/09/20 10:02:17;;;;;;;5.45;0.40;;;15.30;99.90;;;;;;4808561;29;20122;-91
2022/09/20 10:04:56;;;;;;;5.22;0.60;;;15.40;99.90;;;;;;4807031;29;20384;-91
2022/09/20 10:07:33;;;;;;;4.53;0.70;;;15.50;99.90;;;;;;4807478;29;20046;-91
2022/09/20 10:10:24;;;;;;;3.30;0.60;;;15.50;99.90;;;;;;4807266;29;20095;-90
2022/09/20 10:13:08;;;;;;;5.05;0.70;;;15.60;99.90;;;;;;4811010;29;20081;-90
2022/09/20 10:15:46;;;;;;;5.35;0.50;;;15.70;99.90;;;;;;4812186;29;20136;-90
2022/09/20 10:18:32;;;;;;;9.60;0.70;;;15.80;99.90;;;;;;4797278;29;20145;-92
2022/09/20 10:21:11;;;;;;;5.60;0.68;;;15.80;99.90;;;;;;4810781;29;20046;-91
2022/09/20 10:23:53;;;;;;;7.60;0.93;;;15.80;99.90;;;;;;4794556;29;20133;-92
2022/09/20 10:26:28;;;;;;;3.88;0.65;;;15.70;99.90;;;;;;4807299;29;20049;-91
2022/09/20 10:29:19;;;;;;;4.47;0.70;;;15.60;99.90;;;;;;4808947;29;20382;-92
2022/09/20 10:31:56;;;;;;;5.28;0.73;;;15.60;99.90;;;;;;4806986;29;20051;-92
2022/09/20 10:34:36;;;;;;;4.40;0.80;;;15.70;99.90;;;;;;4808128;29;20464;-91
2022/09/20 10:37:05;;;;;;;5.43;0.77;;;15.80;99.90;;;;;;4807329;29;20062;-91
2022/09/20 10:39:34;;;;;;;5.00;0.98;;;16.00;99.90;;;;;;4807934;29;20034;-91
2022/09/20 10:45:32;;;;;;;9.05;1.00;;;16.40;99.90;;;;;;4806952;29;20097;-92
2022/09/20 10:48:17;;;;;;;10.10;1.40;;;16.40;99.90;;;;;;4807500;29;20070;-91
2022/09/20 10:50:50;;;;;;;7.05;1.25;;;16.20;99.90;;;;;;4806000;29;20401;-91
2022/09/20 10:53:40;;;;;;;13.40;0.90;;;16.20;99.90;;;;;;4790515;29;20050;-90
2022/09/20 10:56:25;;;;;;;7.55;1.13;;;16.20;99.90;;;;;;4808132;29;20047;-93
2022/09/20 10:58:51;;;;;;;6.47;0.80;;;15.80;99.90;;;;;;4807213;29;20042;-93
2022/09/20 11:01:31;;;;;;;10.52;1.25;;;16.30;99.90;;;;;;4792027;29;20066;-94
2022/09/20 11:04:17;;;;;;;9.18;1.10;;;16.30;99.90;;;;;;4808235;29;20074;-93
2022/09/20 11:07:09;;;;;;;8.93;0.82;;;16.30;99.90;;;;;;4793832;29;20055;-93
2022/09/20 11:09:41;;;;;;;9.95;0.77;;;16.30;99.90;;;;;;4808424;29;20094;-94
2022/09/20 11:12:28;;;;;;;7.95;1.20;;;16.30;99.90;;;;;;4808615;29;20054;-93
2022/09/20 11:15:01;;;;;;;7.65;1.15;;;16.10;99.90;;;;;;4810495;29;20138;-93
2022/09/20 11:17:40;;;;;;;7.80;1.20;;;16.00;99.90;;;;;;4794674;29;20050;-94
2022/09/20 11:20:18;;;;;;;16.80;1.58;;;15.90;99.90;;;;;;4810414;29;20137;-93
2022/09/20 11:22:54;;;;;;;9.27;0.77;;;15.90;99.90;;;;;;4793957;29;20047;-93
2022/09/20 11:25:21;;;;;;;5.55;0.73;;;15.70;99.90;;;;;;4794770;29;20141;-93
2022/09/20 11:27:54;;;;;;;5.97;0.82;;;15.80;99.90;;;;;;4809459;29;20057;-93
2022/09/20 11:30:22;;;;;;;12.70;1.15;;;15.90;99.90;;;;;;4794592;29;20111;-93
2022/09/20 11:32:56;;;;;;;9.52;1.00;;;15.90;99.90;;;;;;4794024;29;20046;-93
2022/09/20 11:35:33;;;;;;;5.70;0.90;;;15.90;99.90;;;;;;4796061;29;20058;-93
2022/09/20 11:38:09;;;;;;;6.15;0.82;;;16.00;99.90;;;;;;4794407;29;20061;-94
2022/09/20 11:40:44;;;;;;;6.47;1.10;;;16.20;99.90;;;;;;4794534;29;20087;-94
2022/09/20 11:43:14;;;;;;;7.10;1.02;;;16.40;99.90;;;;;;4794396;29;20514;-94
2022/09/20 11:45:45;;;;;;;8.00;1.05;;;16.70;99.90;;;;;;4793863;29;20054;-93
2022/09/20 11:48:19;;;;;;;11.35;1.20;;;16.80;99.90;;;;;;4793957;29;20133;-94
2022/09/20 11:51:06;;;;;;;8.50;1.50;;;17.00;99.90;;;;;;4793947;29;20062;-93
2022/09/20 11:54:01;;;;;;;8.82;1.08;;;16.90;99.90;;;;;;4792728;29;20081;-93
2022/09/20 11:56:30;;;;;;;8.57;1.10;;;16.60;99.90;;;;;;4810217;29;20137;-93
2022/09/20 11:59:00;;;;;;;10.60;0.93;;;16.30;99.90;;;;;;4794175;29;20069;-93
2022/09/20 12:01:31;;;;;;;9.02;1.33;;;16.00;99.90;;;;;;4793729;29;20046;-94
2022/09/20 12:04:10;;;;;;;4.60;1.00;;;15.80;99.90;;;;;;4808691;29;20046;-95
2022/09/20 12:06:38;;;;;;;11.88;0.90;;;15.70;99.90;;;;;;4794301;29;20056;-95
2022/09/20 12:09:21;;;;;;;6.85;1.02;;;15.50;99.90;;;;;;4808688;29;20051;-94
2022/09/20 12:11:51;;;;;;;9.35;1.20;;;15.40;99.90;;;;;;4793692;29;20630;-94
2022/09/20 12:14:26;;;;;;;14.18;0.98;;;15.60;99.90;;;;;;4794887;29;20042;-93
2022/09/20 12:16:55;;;;;;;9.40;0.90;;;15.70;99.90;;;;;;4793119;29;20050;-94
2022/09/20 12:19:31;;;;;;;11.55;1.00;;;15.80;99.90;;;;;;4795484;29;20054;-93
2022/09/20 12:21:57;;;;;;;3.92;0.60;;;15.80;99.90;;;;;;4807796;29;20046;-94
2022/09/20 12:24:25;;;;;;;8.38;0.93;;;15.80;99.90;;;;;;4810418;29;20223;-93
2022/09/20 12:26:55;;;;;;;11.52;1.10;;;15.70;99.90;;;;;;4805987;29;20047;-94
2022/09/20 12:29:24;;;;;;;9.00;0.93;;;15.80;99.90;;;;;;4807559;29;20057;-93
2022/09/20 12:31:52;;;;;;;5.20;0.77;;;15.90;99.90;;;;;;4790484;29;20141;-93
2022/09/20 12:34:18;;;;;;;10.93;1.10;;;15.80;99.90;;;;;;4808372;29;20047;-94
2022/09/20 12:37:06;;;;;;;8.50;1.42;;;15.80;99.90;;;;;;4790433;29;20138;-96
2022/09/20 12:39:35;;;;;;;4.10;0.80;;;15.90;99.90;;;;;;4792218;29;20145;-93
2022/09/20 12:42:08;;;;;;;6.68;1.00;;;15.90;99.90;;;;;;4805817;29;20050;-95
2022/09/20 12:44:55;;;;;;;6.55;0.70;;;15.90;99.90;;;;;;4790477;29;20061;-93
2022/09/20 12:47:22;;;;;;;12.13;1.02;;;16.00;99.90;;;;;;4804617;29;20088;-94
2022/09/20 12:53:05;;;;;;;5.45;0.82;;;16.10;99.90;;;;;;4804434;29;20087;-94
2022/09/20 12:56:03;;;;;;;6.15;0.70;;;16.30;99.90;;;;;;4791333;29;20141;-94
2022/09/20 12:58:35;;;;;;;3.42;0.70;;;16.30;99.90;;;;;;4806767;29;20054;-93
2022/09/20 13:01:06;;;;;;;6.88;0.90;;;16.40;99.90;;;;;;4805296;29;20039;-93
2022/09/20 13:03:37;;;;;;;8.88;0.80;;;16.40;99.90;;;;;;4789917;29;20081;-93
2022/09/20 13:06:05;;;;;;;5.63;0.60;;;16.40;99.90;;;;;;4804941;29;20050;-94
2022/09/20 13:08:46;;;;;;;2.63;0.40;;;16.40;99.90;;;;;;4790172;29;20046;-95
2022/09/20 13:11:18;;;;;;;9.52;0.80;;;16.40;99.90;;;;;;4804200;29;20062;-94
2022/09/20 13:13:46;;;;;;;6.07;0.90;;;16.50;99.90;;;;;;4804777;29;20047;-94
2022/09/20 13:16:22;;;;;;;6.10;0.70;;;16.50;99.90;;;;;;4801323;29;20122;-95
2022/09/20 13:18:59;;;;;;;6.15;0.70;;;16.50;99.90;;;;;;4807833;29;20098;-94
2022/09/20 13:21:26;;;;;;;3.35;0.50;;;16.50;99.90;;;;;;4808161;29;20054;-94
2022/09/20 13:23:54;;;;;;;7.18;0.90;;;16.30;99.90;;;;;;4807759;29;20078;-94
2022/09/20 13:26:28;;;;;;;6.32;0.60;;;16.20;99.90;;;;;;4809508;29;20480;-94
2022/09/20 13:28:57;;;;;;;6.40;0.90;;;16.20;99.90;;;;;;4807633;29;20404;-94
2022/09/20 13:31:26;;;;;;;4.38;0.63;;;16.10;99.90;;;;;;4807375;29;20552;-94
2022/09/20 13:33:52;;;;;;;6.75;0.90;;;15.90;99.90;;;;;;4807490;29;20046;-94
2022/09/20 13:36:26;;;;;;;10.63;0.70;;;15.70;99.90;;;;;;4808768;29;20054;-94
2022/09/20 13:38:54;;;;;;;8.10;0.70;;;15.60;99.90;;;;;;4807594;29;20074;-94
2022/09/20 13:41:21;;;;;;;6.18;1.00;;;15.60;99.90;;;;;;4809257;29;20117;-94
2022/09/20 13:43:49;;;;;;;8.23;0.85;;;15.70;99.90;;;;;;4796358;29;20058;-93
2022/09/20 13:46:22;;;;;;;7.38;0.90;;;15.70;99.90;;;;;;4815278;29;20085;-94
2022/09/20 13:48:57;;;;;;;9.40;1.05;;;15.70;99.90;;;;;;4811577;29;20192;-93
2022/09/20 13:51:26;;;;;;;8.30;1.10;;;15.70;99.90;;;;;;4811597;29;20099;-93
2022/09/20 13:53:52;;;;;;;9.32;0.90;;;15.70;99.90;;;;;;4810363;29;20125;-93
2022/09/20 13:56:27;;;;;;;7.75;0.90;;;15.70;99.90;;;;;;4796807;29;20095;-93
2022/09/20 13:58:54;;;;;;;7.18;0.60;;;15.70;99.90;;;;;;4795968;29;20046;-94
2022/09/20 14:01:26;;;;;;;11.27;1.00;;;15.60;99.90;;;;;;4804933;29;20395;-94
2022/09/20 14:03:53;;;;;;;12.88;1.00;;;15.60;99.90;;;;;;4812002;29;20060;-94
2022/09/20 14:06:27;;;;;;;7.63;0.90;;;15.50;99.90;;;;;;4797443;29;20046;-94
2022/09/20 14:08:53;;;;;;;3.28;0.60;;;15.50;99.90;;;;;;4796132;29;20053;-94
2022/09/20 14:11:22;;;;;;;8.93;0.60;;;15.40;99.90;;;;;;4796243;29;20039;-94
2022/09/20 14:13:51;;;;;;;5.45;0.70;;;15.40;99.90;;;;;;4797057;29;20050;-93
2022/09/20 14:16:20;;;;;;;4.95;0.80;;;15.40;99.90;;;;;;4796300;29;20503;-94
2022/09/20 14:18:47;;;;;;;17.42;1.27;;;15.40;99.90;;;;;;4796311;29;20047;-93
2022/09/20 14:21:18;;;;;;;6.50;0.75;;;15.50;99.90;;;;;;4798023;29;20096;-94
2022/09/20 14:23:49;;;;;;;5.47;0.50;;;15.60;99.90;;;;;;4795251;29;20053;-94
2022/09/20 14:26:15;;;;;;;7.70;0.90;;;15.60;99.90;;;;;;4796111;29;20050;-95
2022/09/20 14:28:42;;;;;;;3.10;0.52;;;15.50;99.90;;;;;;4809173;29;20038;-94
2022/09/20 14:31:17;;;;;;;10.05;1.10;;;15.40;99.90;;;;;;4810495;29;20047;-93
2022/09/20 14:33:48;;;;;;;6.80;1.00;;;15.30;99.90;;;;;;4813681;29;20156;-95
2022/09/20 14:36:18;;;;;;;7.30;1.00;;;15.20;99.90;;;;;;4798175;29;20581;-94
2022/09/20 14:38:47;;;;;;;10.73;0.88;;;15.30;99.90;;;;;;4808233;29;20507;-94
2022/09/20 14:41:22;;;;;;;8.18;0.90;;;15.60;99.90;;;;;;4810618;29;20054;-94
2022/09/20 14:43:55;;;;;;;11.73;1.27;;;15.70;99.90;;;;;;4810672;29;20058;-94